createdAt,value
2023-06-19T00:01:10.212Z,13.96
2023-06-19T00:03:37.229Z,13.94
2023-06-19T00:06:04.289Z,13.35
2023-06-19T00:08:31.822Z,13.48
2023-06-19T00:10:58.825Z,13.39
2023-06-19T00:13:25.818Z,13.08
2023-06-19T00:15:52.812Z,13.66
2023-06-19T00:18:21.221Z,13.16
2023-06-19T00:20:48.539Z,13.40
2023-06-19T00:23:19.619Z,13.67
2023-06-19T00:25:46.656Z,13.57
2023-06-19T00:28:15.258Z,13.78
2023-06-19T00:30:43.290Z,13.24
2023-06-19T00:33:10.647Z,13.44
2023-06-19T00:35:37.829Z,13.57
2023-06-19T00:38:06.746Z,13.67
2023-06-19T00:40:35.178Z,13.50
2023-06-19T00:43:02.338Z,13.69
2023-06-19T00:45:29.858Z,13.35
2023-06-19T00:47:58.967Z,13.44
2023-06-19T00:50:27.041Z,13.40
2023-06-19T00:52:54.290Z,13.24
2023-06-19T00:55:22.452Z,13.26
2023-06-19T00:57:50.779Z,13.07
2023-06-19T01:00:19.668Z,13.67
2023-06-19T01:02:48.320Z,13.32
2023-06-19T01:05:18.350Z,13.27
2023-06-19T01:08:02.198Z,13.35
2023-06-19T01:10:35.202Z,13.22
2023-06-19T01:13:13.462Z,13.56
2023-06-19T01:15:43.250Z,13.25
2023-06-19T01:18:12.825Z,13.17
2023-06-19T01:20:40.284Z,13.25
2023-06-19T01:23:11.407Z,12.87
2023-06-19T01:25:39.084Z,13.13
2023-06-19T01:28:07.277Z,12.95
2023-06-19T01:30:35.648Z,13.06
2023-06-19T01:33:12.570Z,13.07
2023-06-19T01:35:43.339Z,12.72
2023-06-19T01:38:12.078Z,12.66
2023-06-19T01:40:40.782Z,12.66
2023-06-19T01:43:09.401Z,13.05
2023-06-19T01:45:36.637Z,12.90
2023-06-19T01:48:03.985Z,13.13
2023-06-19T01:50:30.949Z,12.61
2023-06-19T01:52:57.966Z,12.63
2023-06-19T01:55:24.900Z,12.35
2023-06-19T01:57:51.838Z,12.65
2023-06-19T02:00:20.646Z,12.47
2023-06-19T02:02:47.673Z,12.92
2023-06-19T02:05:15.259Z,12.63
2023-06-19T02:07:42.473Z,12.73
2023-06-19T02:10:09.789Z,12.70
2023-06-19T02:12:36.764Z,12.30
2023-06-19T02:15:04.172Z,12.49
2023-06-19T02:17:31.188Z,12.49
2023-06-19T02:19:58.036Z,12.30
2023-06-19T02:22:24.971Z,12.25
2023-06-19T02:24:51.925Z,12.37
2023-06-19T02:27:20.390Z,12.44
2023-06-19T02:29:47.300Z,12.34
2023-06-19T02:32:14.275Z,12.58
2023-06-19T02:34:41.252Z,12.40
2023-06-19T02:37:09.543Z,12.32
2023-06-19T02:39:36.504Z,12.28
2023-06-19T02:42:03.814Z,12.11
2023-06-19T02:44:30.702Z,12.63
2023-06-19T02:46:57.746Z,12.44
2023-06-19T02:49:24.677Z,12.02
2023-06-19T02:51:51.531Z,12.27
2023-06-19T02:54:22.180Z,12.44
2023-06-19T02:56:49.738Z,12.48
2023-06-19T02:59:16.810Z,12.32
2023-06-19T03:01:43.957Z,12.18
2023-06-19T03:04:10.959Z,12.34
2023-06-19T03:06:41.243Z,12.21
2023-06-19T03:09:13.493Z,11.93
2023-06-19T03:11:41.401Z,12.18
2023-06-19T03:14:09.924Z,12.37
2023-06-19T03:16:37.077Z,12.50
2023-06-19T03:19:04.410Z,12.48
2023-06-19T03:21:31.481Z,12.06
2023-06-19T03:23:58.768Z,12.35
2023-06-19T03:26:28.697Z,11.83
2023-06-19T03:28:55.648Z,12.28
2023-06-19T03:31:22.776Z,11.84
2023-06-19T03:33:49.880Z,11.71
2023-06-19T03:36:17.274Z,11.81
2023-06-19T03:38:44.237Z,11.67
2023-06-19T03:41:11.192Z,12.14
2023-06-19T03:43:39.341Z,11.73
2023-06-19T03:46:06.451Z,11.77
2023-06-19T03:48:33.357Z,11.78
2023-06-19T03:51:00.652Z,11.28
2023-06-19T03:53:27.563Z,11.36
2023-06-19T03:55:56.395Z,11.83
2023-06-19T03:58:23.951Z,11.36
2023-06-19T04:00:50.913Z,11.36
2023-06-19T04:03:18.543Z,11.76
2023-06-19T04:05:45.482Z,11.59
2023-06-19T04:08:12.487Z,11.38
2023-06-19T04:10:39.419Z,11.66
2023-06-19T04:13:08.158Z,12.11
2023-06-19T04:15:37.141Z,11.81
2023-06-19T04:18:04.517Z,11.63
2023-06-19T04:20:31.470Z,11.97
2023-06-19T04:22:58.565Z,11.69
2023-06-19T04:25:25.488Z,11.72
2023-06-19T04:27:52.419Z,11.91
2023-06-19T04:30:25.234Z,11.19
2023-06-19T04:32:54.498Z,11.36
2023-06-19T04:35:21.670Z,11.93
2023-06-19T04:37:50.128Z,11.56
2023-06-19T04:40:18.417Z,11.38
2023-06-19T04:42:45.799Z,11.51
2023-06-19T04:45:13.027Z,11.45
2023-06-19T04:47:52.550Z,11.25
2023-06-19T04:50:22.153Z,11.34
2023-06-19T04:52:52.110Z,11.33
2023-06-19T04:55:20.591Z,11.49
2023-06-19T04:57:47.678Z,11.60
2023-06-19T05:00:16.452Z,11.76
2023-06-19T05:02:48.383Z,12.02
2023-06-19T05:05:16.041Z,12.10
2023-06-19T05:07:43.513Z,11.88
2023-06-19T05:10:11.732Z,11.69
2023-06-19T05:12:38.878Z,12.20
2023-06-19T05:15:06.342Z,12.30
2023-06-19T05:17:33.434Z,12.27
2023-06-19T05:20:00.599Z,12.09
2023-06-19T05:22:28.193Z,12.39
2023-06-19T05:24:55.464Z,12.43
2023-06-19T05:27:22.358Z,12.62
2023-06-19T05:29:49.306Z,13.10
2023-06-19T05:32:16.396Z,13.00
2023-06-19T05:34:43.310Z,13.82
2023-06-19T05:37:10.220Z,14.49
2023-06-19T05:39:37.420Z,14.71
2023-06-19T05:42:04.466Z,15.78
2023-06-19T05:44:31.410Z,16.36
2023-06-19T05:46:58.348Z,16.24
2023-06-19T05:49:25.201Z,16.65
2023-06-19T05:51:52.070Z,16.46
2023-06-19T05:54:25.806Z,16.66
2023-06-19T05:56:53.965Z,16.68
2023-06-19T05:59:21.454Z,17.03
2023-06-19T06:01:48.745Z,17.16
2023-06-19T06:04:16.152Z,18.14
2023-06-19T06:06:42.988Z,18.67
2023-06-19T06:09:13.496Z,18.88
2023-06-19T06:11:40.546Z,19.34
2023-06-19T06:14:07.482Z,19.96
2023-06-19T06:16:34.404Z,20.13
2023-06-19T06:19:01.332Z,20.21
2023-06-19T06:21:28.274Z,20.62
2023-06-19T06:23:56.037Z,20.62
2023-06-19T06:26:22.864Z,20.84
2023-06-19T06:28:49.838Z,21.57
2023-06-19T06:31:17.019Z,21.38
2023-06-19T06:33:44.260Z,21.86
2023-06-19T06:36:12.544Z,21.55
2023-06-19T06:38:42.169Z,22.02
2023-06-19T06:41:09.439Z,21.89
2023-06-19T06:43:36.387Z,22.32
2023-06-19T06:46:03.459Z,21.97
2023-06-19T06:48:31.653Z,22.30
2023-06-19T06:51:02.532Z,22.57
2023-06-19T06:53:29.748Z,22.48
2023-06-19T06:55:56.929Z,22.96
2023-06-19T06:58:23.856Z,23.35
2023-06-19T07:00:52.340Z,23.59
2023-06-19T07:03:23.945Z,23.46
2023-06-19T07:05:50.893Z,23.45
2023-06-19T07:08:17.905Z,23.89
2023-06-19T07:10:44.820Z,24.09
2023-06-19T07:13:12.672Z,24.19
2023-06-19T07:15:39.659Z,24.34
2023-06-19T07:18:06.632Z,23.95
2023-06-19T07:20:33.615Z,24.61
2023-06-19T07:23:01.520Z,24.62
2023-06-19T07:25:28.485Z,24.86
2023-06-19T07:27:55.429Z,25.06
2023-06-19T07:30:22.710Z,25.49
2023-06-19T07:32:49.813Z,25.44
2023-06-19T07:35:17.185Z,25.82
2023-06-19T07:37:45.601Z,25.44
2023-06-19T07:40:13.319Z,26.23
2023-06-19T07:42:42.166Z,26.18
2023-06-19T07:45:11.350Z,25.93
2023-06-19T07:47:38.434Z,26.34
2023-06-19T07:50:05.873Z,26.15
2023-06-19T07:52:32.909Z,26.42
2023-06-19T07:54:59.971Z,26.37
2023-06-19T07:57:27.849Z,27.02
2023-06-19T07:59:56.042Z,27.34
2023-06-19T08:02:23.032Z,27.37
2023-06-19T08:04:50.323Z,27.27
2023-06-19T08:07:18.047Z,27.26
2023-06-19T19:00:23.989Z,18.18
2023-06-19T19:02:51.859Z,18.44
2023-06-19T19:05:18.742Z,18.57
2023-06-19T19:07:45.556Z,18.66
2023-06-19T19:10:12.393Z,18.76
2023-06-19T19:12:39.165Z,18.82
2023-06-19T19:15:07.087Z,18.78
2023-06-19T19:17:33.923Z,18.74
2023-06-19T19:20:04.857Z,18.77
2023-06-19T19:22:31.711Z,18.73
2023-06-19T19:24:58.537Z,18.74
2023-06-19T19:27:25.495Z,18.70
2023-06-19T19:29:52.871Z,18.70
2023-06-19T19:32:22.454Z,18.59
2023-06-19T19:34:49.537Z,18.66
2023-06-19T19:37:16.429Z,18.61
2023-06-19T19:39:43.484Z,18.49
2023-06-19T19:42:10.336Z,18.44
2023-06-19T19:44:37.232Z,18.38
2023-06-19T19:47:04.304Z,18.27
2023-06-19T19:49:31.148Z,18.17
2023-06-19T19:51:58.108Z,18.07
2023-06-19T19:54:24.874Z,18.00
2023-06-19T19:56:51.667Z,18.01
2023-06-19T19:59:18.495Z,17.93
2023-06-19T20:01:45.302Z,17.85
2023-06-19T20:04:13.136Z,17.83
2023-06-19T20:06:41.883Z,17.88
2023-06-19T20:09:11.173Z,17.72
2023-06-19T20:11:38.746Z,17.75
2023-06-19T20:14:05.992Z,17.65
2023-06-19T20:16:34.320Z,17.57
2023-06-19T20:19:04.344Z,17.49
2023-06-19T20:21:31.204Z,17.48
2023-06-19T20:23:58.032Z,17.38
2023-06-19T20:26:24.940Z,17.29
2023-06-19T20:28:51.906Z,17.17
2023-06-19T20:31:19.268Z,17.20
2023-06-19T20:33:46.154Z,17.07
2023-06-19T20:36:13.102Z,17.04
2023-06-19T20:38:39.874Z,17.02
2023-06-19T20:41:06.756Z,16.90
2023-06-19T20:43:33.921Z,16.86
2023-06-19T20:46:01.866Z,16.79
2023-06-19T20:48:29.875Z,16.71
2023-06-19T20:50:57.708Z,16.59
2023-06-19T20:53:24.631Z,16.51
2023-06-19T20:55:51.452Z,16.45
2023-06-19T20:58:18.424Z,16.33
2023-06-19T21:00:46.526Z,16.24
2023-06-19T21:03:13.613Z,16.28
2023-06-19T21:05:40.517Z,16.31
2023-06-19T21:08:08.583Z,16.19
2023-06-19T21:10:35.455Z,16.25
2023-06-19T21:13:17.691Z,16.14
2023-06-19T21:15:48.149Z,16.12
2023-06-19T21:18:16.569Z,16.07
2023-06-19T21:20:43.374Z,16.07
2023-06-19T21:23:10.167Z,16.04
2023-06-19T21:25:36.975Z,16.03
2023-06-19T21:28:03.893Z,16.01
2023-06-19T21:30:32.848Z,15.95
2023-06-19T21:33:00.146Z,15.95
2023-06-19T21:35:27.180Z,15.89
2023-06-19T21:37:54.060Z,15.99
2023-06-19T21:40:20.922Z,15.90
2023-06-19T21:42:47.744Z,15.89
2023-06-19T21:45:14.528Z,15.90
2023-06-19T21:47:41.529Z,15.82
2023-06-19T21:50:08.736Z,15.81
2023-06-19T21:52:39.371Z,15.74
2023-06-19T21:55:09.674Z,15.74
2023-06-19T21:57:53.875Z,15.71
2023-06-19T22:00:28.137Z,15.69
2023-06-19T22:02:55.952Z,15.72
2023-06-19T22:05:23.284Z,15.72
2023-06-19T22:07:50.389Z,15.75
2023-06-19T22:10:17.594Z,15.74
2023-06-19T22:12:44.441Z,15.72
2023-06-19T22:15:11.371Z,15.78
2023-06-19T22:17:38.524Z,15.77
2023-06-19T22:20:06.043Z,15.79
2023-06-19T22:22:32.884Z,15.79
2023-06-19T22:24:59.656Z,15.74
2023-06-19T22:27:26.424Z,15.75
2023-06-19T22:29:53.237Z,15.74
2023-06-19T22:32:20.303Z,15.77
2023-06-19T22:34:47.254Z,15.77
2023-06-19T22:37:15.125Z,15.77
2023-06-19T22:39:43.017Z,15.63
2023-06-19T22:42:09.877Z,15.56
2023-06-19T22:44:36.701Z,15.53
2023-06-19T22:47:03.549Z,15.54
2023-06-19T22:49:30.441Z,15.44
2023-06-19T22:52:00.091Z,15.41
2023-06-19T22:54:26.899Z,15.39
2023-06-19T22:56:54.286Z,15.36
2023-06-19T22:59:21.207Z,15.32
2023-06-19T23:01:48.035Z,15.29
2023-06-19T23:04:14.899Z,15.17
2023-06-19T23:06:45.994Z,15.13
2023-06-19T23:09:13.555Z,15.09
2023-06-19T23:11:40.824Z,15.02
2023-06-19T23:14:07.874Z,15.00
2023-06-19T23:16:34.928Z,14.98
2023-06-19T23:19:01.779Z,14.93
2023-06-19T23:21:31.545Z,14.92
2023-06-19T23:23:58.999Z,14.88
2023-06-19T23:26:26.051Z,14.85
2023-06-19T23:28:53.677Z,14.88
2023-06-19T23:31:22.642Z,14.89
2023-06-19T23:33:55.215Z,14.85
2023-06-19T23:36:22.056Z,14.79
2023-06-19T23:38:51.836Z,14.78
2023-06-19T23:41:19.778Z,14.73
2023-06-19T23:43:47.473Z,14.71
2023-06-19T23:46:15.920Z,14.69
2023-06-19T23:48:42.755Z,14.65
2023-06-19T23:51:10.542Z,14.74
2023-06-19T23:53:37.368Z,14.75
2023-06-19T23:56:04.350Z,14.77
2023-06-19T23:58:31.271Z,14.80
